sensor_id;sensor_type;location;lat;lon;timestamp;temperature;humidity
55173;DHT22;41061;52.822;6.860;2022-10-26T00:00:43;10.80;99.90
55173;DHT22;41061;52.822;6.860;2022-10-26T00:03:09;10.90;99.90
55173;DHT22;41061;52.822;6.860;2022-10-26T00:05:35;10.90;99.90
55173;DHT22;41061;52.822;6.860;2022-10-26T00:08:01;10.90;99.90
55173;DHT22;41061;52.822;6.860;2022-10-26T00:10:27;10.90;99.90
55173;DHT22;41061;52.822;6.860;2022-10-26T00:12:52;10.90;99.90
55173;DHT22;41061;52.822;6.860;2022-10-26T00:15:19;10.90;99.90
55173;DHT22;41061;52.822;6.860;2022-10-26T00:17:46;10.80;99.90
55173;DHT22;41061;52.822;6.860;2022-10-26T00:20:12;10.80;99.90
55173;DHT22;41061;52.822;6.860;2022-10-26T00:22:38;10.70;99.90
55173;DHT22;41061;52.822;6.860;2022-10-26T00:25:04;10.70;99.90
55173;DHT22;41061;52.822;6.860;2022-10-26T00:27:30;10.70;99.90
55173;DHT22;41061;52.822;6.860;2022-10-26T00:29:56;10.60;99.90
55173;DHT22;41061;52.822;6.860;2022-10-26T00:32:22;10.70;99.90
55173;DHT22;41061;52.822;6.860;2022-10-26T00:34:47;10.60;99.90
55173;DHT22;41061;52.822;6.860;2022-10-26T00:37:13;10.60;99.90
55173;DHT22;41061;52.822;6.860;2022-10-26T00:39:39;10.60;99.90
55173;DHT22;41061;52.822;6.860;2022-10-26T00:42:04;10.50;99.90
55173;DHT22;41061;52.822;6.860;2022-10-26T00:47:18;10.40;99.90
55173;DHT22;41061;52.822;6.860;2022-10-26T00:49:46;10.40;99.90
55173;DHT22;41061;52.822;6.860;2022-10-26T00:52:14;10.30;99.90
55173;DHT22;41061;52.822;6.860;2022-10-26T00:54:42;10.30;99.90
55173;DHT22;41061;52.822;6.860;2022-10-26T00:57:10;10.20;99.90
55173;DHT22;41061;52.822;6.860;2022-10-26T00:59:36;10.30;99.90
55173;DHT22;41061;52.822;6.860;2022-10-26T01:02:02;10.20;99.90
55173;DHT22;41061;52.822;6.860;2022-10-26T01:04:28;10.20;99.90
55173;DHT22;41061;52.822;6.860;2022-10-26T01:06:54;10.20;99.90
55173;DHT22;41061;52.822;6.860;2022-10-26T01:09:20;10.20;99.90
55173;DHT22;41061;52.822;6.860;2022-10-26T01:11:46;10.20;99.90
55173;DHT22;41061;52.822;6.860;2022-10-26T01:14:13;10.20;99.90
55173;DHT22;41061;52.822;6.860;2022-10-26T01:22:23;10.10;99.90
55173;DHT22;41061;52.822;6.860;2022-10-26T01:27:26;10.10;99.90
55173;DHT22;41061;52.822;6.860;2022-10-26T01:37:51;10.00;99.90
55173;DHT22;41061;52.822;6.860;2022-10-26T01:40:20;10.00;99.90
55173;DHT22;41061;52.822;6.860;2022-10-26T01:42:51;10.00;99.90
55173;DHT22;41061;52.822;6.860;2022-10-26T01:45:18;10.00;99.90
55173;DHT22;41061;52.822;6.860;2022-10-26T01:47:45;10.00;99.90
55173;DHT22;41061;52.822;6.860;2022-10-26T01:50:11;10.00;99.90
55173;DHT22;41061;52.822;6.860;2022-10-26T01:52:40;10.00;99.90
55173;DHT22;41061;52.822;6.860;2022-10-26T02:01:08;10.00;99.90
55173;DHT22;41061;52.822;6.860;2022-10-26T02:04:16;9.90;99.90
55173;DHT22;41061;52.822;6.860;2022-10-26T02:09:59;9.90;99.90
55173;DHT22;41061;52.822;6.860;2022-10-26T02:12:52;9.90;99.90
55173;DHT22;41061;52.822;6.860;2022-10-26T02:15:38;9.90;99.90
55173;DHT22;41061;52.822;6.860;2022-10-26T02:18:22;9.90;99.90
55173;DHT22;41061;52.822;6.860;2022-10-26T02:20:52;9.80;99.90
55173;DHT22;41061;52.822;6.860;2022-10-26T02:23:21;9.90;99.90
55173;DHT22;41061;52.822;6.860;2022-10-26T02:25:50;9.90;99.90
55173;DHT22;41061;52.822;6.860;2022-10-26T02:28:23;9.90;99.90
55173;DHT22;41061;52.822;6.860;2022-10-26T02:30:53;9.80;99.90
55173;DHT22;41061;52.822;6.860;2022-10-26T02:33:21;9.90;99.90
55173;DHT22;41061;52.822;6.860;2022-10-26T02:35:52;9.90;99.90
55173;DHT22;41061;52.822;6.860;2022-10-26T02:38:19;9.90;99.90
55173;DHT22;41061;52.822;6.860;2022-10-26T02:40:47;9.90;99.90
55173;DHT22;41061;52.822;6.860;2022-10-26T02:43:15;9.90;99.90
55173;DHT22;41061;52.822;6.860;2022-10-26T02:45:50;9.90;99.90
55173;DHT22;41061;52.822;6.860;2022-10-26T02:48:17;9.90;99.90
55173;DHT22;41061;52.822;6.860;2022-10-26T02:50:54;9.90;99.90
55173;DHT22;41061;52.822;6.860;2022-10-26T02:53:33;10.00;99.90
55173;DHT22;41061;52.822;6.860;2022-10-26T02:56:06;9.90;99.90
55173;DHT22;41061;52.822;6.860;2022-10-26T02:58:38;10.00;99.90
55173;DHT22;41061;52.822;6.860;2022-10-26T03:01:06;10.00;99.90
55173;DHT22;41061;52.822;6.860;2022-10-26T03:03:32;10.00;99.90
55173;DHT22;41061;52.822;6.860;2022-10-26T03:05:57;10.00;99.90
55173;DHT22;41061;52.822;6.860;2022-10-26T03:08:23;10.00;99.90
55173;DHT22;41061;52.822;6.860;2022-10-26T03:10:49;10.00;99.90
55173;DHT22;41061;52.822;6.860;2022-10-26T03:13:14;10.00;99.90
55173;DHT22;41061;52.822;6.860;2022-10-26T03:15:40;10.00;99.90
55173;DHT22;41061;52.822;6.860;2022-10-26T03:18:06;10.00;99.90
55173;DHT22;41061;52.822;6.860;2022-10-26T03:20:32;10.00;99.90
55173;DHT22;41061;52.822;6.860;2022-10-26T03:22:57;10.00;99.90
55173;DHT22;41061;52.822;6.860;2022-10-26T03:25:23;10.00;99.90
55173;DHT22;41061;52.822;6.860;2022-10-26T03:28:00;10.10;99.90
55173;DHT22;41061;52.822;6.860;2022-10-26T03:30:27;10.00;99.90
55173;DHT22;41061;52.822;6.860;2022-10-26T03:32:53;10.00;99.90
55173;DHT22;41061;52.822;6.860;2022-10-26T03:35:18;10.00;99.90
55173;DHT22;41061;52.822;6.860;2022-10-26T03:37:44;10.10;99.90
55173;DHT22;41061;52.822;6.860;2022-10-26T03:40:10;10.10;99.90
55173;DHT22;41061;52.822;6.860;2022-10-26T03:42:39;10.10;99.90
55173;DHT22;41061;52.822;6.860;2022-10-26T03:45:09;10.00;99.90
55173;DHT22;41061;52.822;6.860;2022-10-26T03:47:43;10.00;99.90
55173;DHT22;41061;52.822;6.860;2022-10-26T03:50:09;10.10;99.90
55173;DHT22;41061;52.822;6.860;2022-10-26T03:52:35;10.10;99.90
55173;DHT22;41061;52.822;6.860;2022-10-26T03:55:01;10.10;99.90
55173;DHT22;41061;52.822;6.860;2022-10-26T03:57:26;10.10;99.90
55173;DHT22;41061;52.822;6.860;2022-10-26T03:59:52;10.10;99.90
55173;DHT22;41061;52.822;6.860;2022-10-26T04:02:17;10.10;99.90
55173;DHT22;41061;52.822;6.860;2022-10-26T04:04:43;10.10;99.90
55173;DHT22;41061;52.822;6.860;2022-10-26T04:07:09;10.10;99.90
55173;DHT22;41061;52.822;6.860;2022-10-26T04:09:35;10.10;99.90
55173;DHT22;41061;52.822;6.860;2022-10-26T04:12:00;10.10;99.90
55173;DHT22;41061;52.822;6.860;2022-10-26T04:14:26;10.10;99.90
55173;DHT22;41061;52.822;6.860;2022-10-26T04:16:51;10.10;99.90
55173;DHT22;41061;52.822;6.860;2022-10-26T04:19:17;10.10;99.90
55173;DHT22;41061;52.822;6.860;2022-10-26T04:21:43;10.10;99.90
55173;DHT22;41061;52.822;6.860;2022-10-26T04:24:09;10.10;99.90
55173;DHT22;41061;52.822;6.860;2022-10-26T04:26:36;10.10;99.90
55173;DHT22;41061;52.822;6.860;2022-10-26T04:29:02;10.10;99.90
55173;DHT22;41061;52.822;6.860;2022-10-26T04:31:31;10.10;99.90
55173;DHT22;41061;52.822;6.860;2022-10-26T04:33:57;10.10;99.90
55173;DHT22;41061;52.822;6.860;2022-10-26T04:36:23;10.10;99.90
55173;DHT22;41061;52.822;6.860;2022-10-26T04:38:48;10.10;99.90
55173;DHT22;41061;52.822;6.860;2022-10-26T04:41:14;10.10;99.90
55173;DHT22;41061;52.822;6.860;2022-10-26T04:43:40;10.10;99.90
55173;DHT22;41061;52.822;6.860;2022-10-26T04:46:06;10.10;99.90
55173;DHT22;41061;52.822;6.860;2022-10-26T04:48:31;10.10;99.90
55173;DHT22;41061;52.822;6.860;2022-10-26T04:50:58;10.10;99.90
55173;DHT22;41061;52.822;6.860;2022-10-26T04:53:24;10.10;99.90
55173;DHT22;41061;52.822;6.860;2022-10-26T04:55:56;10.20;99.90
55173;DHT22;41061;52.822;6.860;2022-10-26T04:58:21;10.20;99.90
55173;DHT22;41061;52.822;6.860;2022-10-26T05:00:47;10.20;99.90
55173;DHT22;41061;52.822;6.860;2022-10-26T05:03:12;10.20;99.90
55173;DHT22;41061;52.822;6.860;2022-10-26T05:05:38;10.20;99.90
55173;DHT22;41061;52.822;6.860;2022-10-26T05:08:04;10.30;99.90
55173;DHT22;41061;52.822;6.860;2022-10-26T05:10:29;10.20;99.90
55173;DHT22;41061;52.822;6.860;2022-10-26T05:12:56;10.30;99.90
55173;DHT22;41061;52.822;6.860;2022-10-26T05:15:23;10.30;99.90
55173;DHT22;41061;52.822;6.860;2022-10-26T05:17:57;10.40;99.90
55173;DHT22;41061;52.822;6.860;2022-10-26T05:20:23;10.40;99.90
55173;DHT22;41061;52.822;6.860;2022-10-26T05:22:54;10.50;99.90
55173;DHT22;41061;52.822;6.860;2022-10-26T05:25:20;10.50;99.90
55173;DHT22;41061;52.822;6.860;2022-10-26T05:27:45;10.50;99.90
55173;DHT22;41061;52.822;6.860;2022-10-26T05:30:11;10.50;99.90
55173;DHT22;41061;52.822;6.860;2022-10-26T05:32:37;10.50;99.90
55173;DHT22;41061;52.822;6.860;2022-10-26T05:35:03;10.50;99.90
55173;DHT22;41061;52.822;6.860;2022-10-26T05:37:29;10.50;99.90
55173;DHT22;41061;52.822;6.860;2022-10-26T05:39:54;10.60;99.90
55173;DHT22;41061;52.822;6.860;2022-10-26T05:42:20;10.50;99.90
55173;DHT22;41061;52.822;6.860;2022-10-26T05:44:46;10.50;99.90
55173;DHT22;41061;52.822;6.860;2022-10-26T05:47:11;10.50;99.90
55173;DHT22;41061;52.822;6.860;2022-10-26T05:49:37;10.60;99.90
55173;DHT22;41061;52.822;6.860;2022-10-26T05:52:03;10.60;99.90
55173;DHT22;41061;52.822;6.860;2022-10-26T05:54:29;10.60;99.90
55173;DHT22;41061;52.822;6.860;2022-10-26T05:56:55;10.60;99.90
55173;DHT22;41061;52.822;6.860;2022-10-26T05:59:21;10.60;99.90
55173;DHT22;41061;52.822;6.860;2022-10-26T06:01:58;10.60;99.90
55173;DHT22;41061;52.822;6.860;2022-10-26T06:04:37;10.60;99.90
55173;DHT22;41061;52.822;6.860;2022-10-26T06:07:11;10.60;99.90
55173;DHT22;41061;52.822;6.860;2022-10-26T06:09:38;10.60;99.90
55173;DHT22;41061;52.822;6.860;2022-10-26T06:12:04;10.60;99.90
55173;DHT22;41061;52.822;6.860;2022-10-26T06:14:30;10.60;99.90
55173;DHT22;41061;52.822;6.860;2022-10-26T06:17:06;10.60;99.90
55173;DHT22;41061;52.822;6.860;2022-10-26T06:25:34;10.70;99.90
55173;DHT22;41061;52.822;6.860;2022-10-26T06:30:43;10.70;99.90
55173;DHT22;41061;52.822;6.860;2022-10-26T06:33:09;10.70;99.90
55173;DHT22;41061;52.822;6.860;2022-10-26T06:38:12;10.80;99.90
55173;DHT22;41061;52.822;6.860;2022-10-26T06:40:41;10.80;99.90
55173;DHT22;41061;52.822;6.860;2022-10-26T06:43:37;10.80;99.90
55173;DHT22;41061;52.822;6.860;2022-10-26T06:46:21;10.80;99.90
55173;DHT22;41061;52.822;6.860;2022-10-26T06:48:55;10.90;99.90
55173;DHT22;41061;52.822;6.860;2022-10-26T06:51:22;10.90;99.90
55173;DHT22;41061;52.822;6.860;2022-10-26T06:56:21;10.90;99.90
55173;DHT22;41061;52.822;6.860;2022-10-26T06:58:51;10.90;99.90
55173;DHT22;41061;52.822;6.860;2022-10-26T07:01:17;10.90;99.90
55173;DHT22;41061;52.822;6.860;2022-10-26T07:03:43;11.00;99.90
55173;DHT22;41061;52.822;6.860;2022-10-26T07:06:09;10.90;99.90
55173;DHT22;41061;52.822;6.860;2022-10-26T07:08:34;10.90;99.90
55173;DHT22;41061;52.822;6.860;2022-10-26T07:11:00;10.90;99.90
55173;DHT22;41061;52.822;6.860;2022-10-26T07:13:25;10.90;99.90
55173;DHT22;41061;52.822;6.860;2022-10-26T07:15:51;11.00;99.90
55173;DHT22;41061;52.822;6.860;2022-10-26T07:18:17;11.00;99.90
55173;DHT22;41061;52.822;6.860;2022-10-26T07:20:42;11.10;99.90
55173;DHT22;41061;52.822;6.860;2022-10-26T07:23:09;11.10;99.90
55173;DHT22;41061;52.822;6.860;2022-10-26T07:25:40;11.10;99.90
55173;DHT22;41061;52.822;6.860;2022-10-26T07:28:08;11.20;99.90
55173;DHT22;41061;52.822;6.860;2022-10-26T07:30:35;11.20;99.90
55173;DHT22;41061;52.822;6.860;2022-10-26T07:33:05;11.20;99.90
55173;DHT22;41061;52.822;6.860;2022-10-26T07:35:32;11.20;99.90
55173;DHT22;41061;52.822;6.860;2022-10-26T07:37:58;11.30;99.90
55173;DHT22;41061;52.822;6.860;2022-10-26T07:40:25;11.30;99.90
55173;DHT22;41061;52.822;6.860;2022-10-26T07:42:51;11.40;99.90
55173;DHT22;41061;52.822;6.860;2022-10-26T07:45:17;11.50;99.90
55173;DHT22;41061;52.822;6.860;2022-10-26T07:47:43;11.70;99.90
55173;DHT22;41061;52.822;6.860;2022-10-26T07:50:11;11.80;99.90
55173;DHT22;41061;52.822;6.860;2022-10-26T07:52:37;12.00;99.90
55173;DHT22;41061;52.822;6.860;2022-10-26T07:55:04;12.10;99.90
55173;DHT22;41061;52.822;6.860;2022-10-26T07:57:30;12.20;99.90
55173;DHT22;41061;52.822;6.860;2022-10-26T07:59:55;12.20;99.90
55173;DHT22;41061;52.822;6.860;2022-10-26T08:02:21;12.30;99.90
55173;DHT22;41061;52.822;6.860;2022-10-26T08:04:46;12.30;99.90
55173;DHT22;41061;52.822;6.860;2022-10-26T08:07:12;12.50;99.90
55173;DHT22;41061;52.822;6.860;2022-10-26T08:09:37;12.60;99.90
55173;DHT22;41061;52.822;6.860;2022-10-26T08:12:03;12.80;99.90
55173;DHT22;41061;52.822;6.860;2022-10-26T08:14:29;12.80;99.90
55173;DHT22;41061;52.822;6.860;2022-10-26T08:16:55;12.80;99.90
55173;DHT22;41061;52.822;6.860;2022-10-26T08:19:20;12.80;99.90
55173;DHT22;41061;52.822;6.860;2022-10-26T08:21:46;12.90;99.90
55173;DHT22;41061;52.822;6.860;2022-10-26T08:24:11;12.90;99.90
55173;DHT22;41061;52.822;6.860;2022-10-26T08:26:37;12.90;99.90
55173;DHT22;41061;52.822;6.860;2022-10-26T08:29:03;13.00;99.90
55173;DHT22;41061;52.822;6.860;2022-10-26T08:31:29;12.90;99.90
55173;DHT22;41061;52.822;6.860;2022-10-26T08:33:54;13.10;99.90
55173;DHT22;41061;52.822;6.860;2022-10-26T08:36:23;13.10;99.90
55173;DHT22;41061;52.822;6.860;2022-10-26T08:38:49;13.20;99.90
55173;DHT22;41061;52.822;6.860;2022-10-26T08:41:15;13.40;99.90
55173;DHT22;41061;52.822;6.860;2022-10-26T08:44:03;13.40;99.90
55173;DHT22;41061;52.822;6.860;2022-10-26T08:46:35;13.60;99.90
55173;DHT22;41061;52.822;6.860;2022-10-26T08:51:49;13.70;99.90
55173;DHT22;41061;52.822;6.860;2022-10-26T08:56:56;13.70;99.90
55173;DHT22;41061;52.822;6.860;2022-10-26T08:59:37;13.70;99.90
55173;DHT22;41061;52.822;6.860;2022-10-26T09:02:14;13.70;99.90
55173;DHT22;41061;52.822;6.860;2022-10-26T09:04:58;13.70;99.90
55173;DHT22;41061;52.822;6.860;2022-10-26T09:07:33;13.70;99.90
55173;DHT22;41061;52.822;6.860;2022-10-26T09:10:07;13.70;99.90
55173;DHT22;41061;52.822;6.860;2022-10-26T09:26:14;14.70;99.90
55173;DHT22;41061;52.822;6.860;2022-10-26T09:28:40;14.80;99.90
55173;DHT22;41061;52.822;6.860;2022-10-26T09:31:12;14.90;99.90
55173;DHT22;41061;52.822;6.860;2022-10-26T09:33:39;15.00;99.90
55173;DHT22;41061;52.822;6.860;2022-10-26T09:36:08;15.10;99.90
55173;DHT22;41061;52.822;6.860;2022-10-26T09:41:39;15.30;99.90
55173;DHT22;41061;52.822;6.860;2022-10-26T09:44:10;15.40;99.90
55173;DHT22;41061;52.822;6.860;2022-10-26T09:46:55;15.50;99.90
55173;DHT22;41061;52.822;6.860;2022-10-26T09:49:27;15.70;99.90
55173;DHT22;41061;52.822;6.860;2022-10-26T09:51:57;15.80;99.90
55173;DHT22;41061;52.822;6.860;2022-10-26T09:54:23;15.90;99.90
55173;DHT22;41061;52.822;6.860;2022-10-26T09:56:52;15.90;99.90
55173;DHT22;41061;52.822;6.860;2022-10-26T09:59:21;16.00;99.90
55173;DHT22;41061;52.822;6.860;2022-10-26T10:01:48;16.20;99.90
55173;DHT22;41061;52.822;6.860;2022-10-26T10:06:48;16.20;99.90
55173;DHT22;41061;52.822;6.860;2022-10-26T10:09:15;16.20;99.90
55173;DHT22;41061;52.822;6.860;2022-10-26T10:11:47;16.20;99.90
55173;DHT22;41061;52.822;6.860;2022-10-26T10:14:23;16.20;99.90
55173;DHT22;41061;52.822;6.860;2022-10-26T10:16:58;16.20;99.90
55173;DHT22;41061;52.822;6.860;2022-10-26T10:19:32;16.20;99.90
55173;DHT22;41061;52.822;6.860;2022-10-26T10:24:42;16.20;99.90
55173;DHT22;41061;52.822;6.860;2022-10-26T10:29:45;16.20;99.90
55173;DHT22;41061;52.822;6.860;2022-10-26T10:32:22;16.20;99.90
55173;DHT22;41061;52.822;6.860;2022-10-26T10:34:53;16.30;99.90
55173;DHT22;41061;52.822;6.860;2022-10-26T10:39:48;16.70;99.90
55173;DHT22;41061;52.822;6.860;2022-10-26T10:42:22;16.90;99.90
55173;DHT22;41061;52.822;6.860;2022-10-26T10:44:52;17.00;99.90
55173;DHT22;41061;52.822;6.860;2022-10-26T10:47:24;17.10;99.90
55173;DHT22;41061;52.822;6.860;2022-10-26T10:50:17;17.20;99.90
55173;DHT22;41061;52.822;6.860;2022-10-26T10:52:44;17.30;99.90
55173;DHT22;41061;52.822;6.860;2022-10-26T10:55:19;17.40;99.90
55173;DHT22;41061;52.822;6.860;2022-10-26T11:00:36;17.80;99.90
55173;DHT22;41061;52.822;6.860;2022-10-26T11:03:38;18.00;99.90
55173;DHT22;41061;52.822;6.860;2022-10-26T11:08:51;18.20;99.90
55173;DHT22;41061;52.822;6.860;2022-10-26T11:11:30;18.50;99.90
55173;DHT22;41061;52.822;6.860;2022-10-26T11:14:17;18.60;99.90
55173;DHT22;41061;52.822;6.860;2022-10-26T11:19:36;18.60;99.90
55173;DHT22;41061;52.822;6.860;2022-10-26T11:22:10;18.60;99.90
55173;DHT22;41061;52.822;6.860;2022-10-26T11:24:43;18.60;99.90
55173;DHT22;41061;52.822;6.860;2022-10-26T11:30:00;18.60;99.90
55173;DHT22;41061;52.822;6.860;2022-10-26T11:32:28;18.60;99.90
55173;DHT22;41061;52.822;6.860;2022-10-26T11:35:04;18.70;99.90
55173;DHT22;41061;52.822;6.860;2022-10-26T11:37:50;18.80;99.90
55173;DHT22;41061;52.822;6.860;2022-10-26T11:40:29;18.90;99.90
55173;DHT22;41061;52.822;6.860;2022-10-26T11:43:20;19.00;99.90
55173;DHT22;41061;52.822;6.860;2022-10-26T11:46:04;19.10;99.90
55173;DHT22;41061;52.822;6.860;2022-10-26T11:48:44;19.20;99.90
55173;DHT22;41061;52.822;6.860;2022-10-26T11:51:32;19.30;99.90
55173;DHT22;41061;52.822;6.860;2022-10-26T11:54:15;19.30;99.90
55173;DHT22;41061;52.822;6.860;2022-10-26T11:56:47;19.30;99.90
55173;DHT22;41061;52.822;6.860;2022-10-26T11:59:21;19.40;99.90
55173;DHT22;41061;52.822;6.860;2022-10-26T12:01:51;19.40;99.90
55173;DHT22;41061;52.822;6.860;2022-10-26T12:04:20;19.50;99.90
55173;DHT22;41061;52.822;6.860;2022-10-26T12:06:48;19.50;99.90
55173;DHT22;41061;52.822;6.860;2022-10-26T12:09:19;19.60;99.90
55173;DHT22;41061;52.822;6.860;2022-10-26T12:11:55;19.70;99.90
55173;DHT22;41061;52.822;6.860;2022-10-26T12:14:42;19.70;99.90
55173;DHT22;41061;52.822;6.860;2022-10-26T12:17:14;19.80;99.90
55173;DHT22;41061;52.822;6.860;2022-10-26T12:20:10;19.80;99.90
55173;DHT22;41061;52.822;6.860;2022-10-26T12:22:45;19.90;99.90
55173;DHT22;41061;52.822;6.860;2022-10-26T12:37:56;19.30;99.90
55173;DHT22;41061;52.822;6.860;2022-10-26T12:45:38;19.30;99.90
55173;DHT22;41061;52.822;6.860;2022-10-26T12:48:23;19.40;99.90
55173;DHT22;41061;52.822;6.860;2022-10-26T12:50:52;19.60;99.90
55173;DHT22;41061;52.822;6.860;2022-10-26T12:53:21;19.60;99.90
55173;DHT22;41061;52.822;6.860;2022-10-26T12:56:02;19.70;99.90
55173;DHT22;41061;52.822;6.860;2022-10-26T13:01:33;19.70;99.90
55173;DHT22;41061;52.822;6.860;2022-10-26T13:07:18;19.60;99.90
55173;DHT22;41061;52.822;6.860;2022-10-26T13:10:34;19.50;99.90
55173;DHT22;41061;52.822;6.860;2022-10-26T13:12:45;19.50;99.90
55173;DHT22;41061;52.822;6.860;2022-10-26T13:15:18;19.40;99.90
55173;DHT22;41061;52.822;6.860;2022-10-26T13:17:57;19.30;99.90
55173;DHT22;41061;52.822;6.860;2022-10-26T13:20:23;19.10;99.90
55173;DHT22;41061;52.822;6.860;2022-10-26T13:22:49;19.00;99.90
55173;DHT22;41061;52.822;6.860;2022-10-26T13:25:36;19.00;99.90
55173;DHT22;41061;52.822;6.860;2022-10-26T13:28:06;18.90;99.90
55173;DHT22;41061;52.822;6.860;2022-10-26T13:30:50;19.00;99.90
55173;DHT22;41061;52.822;6.860;2022-10-26T13:33:26;18.90;99.90
55173;DHT22;41061;52.822;6.860;2022-10-26T13:35:55;18.90;99.90
55173;DHT22;41061;52.822;6.860;2022-10-26T13:38:25;18.90;99.90
55173;DHT22;41061;52.822;6.860;2022-10-26T13:41:01;18.90;99.90
55173;DHT22;41061;52.822;6.860;2022-10-26T13:43:29;18.90;99.90
55173;DHT22;41061;52.822;6.860;2022-10-26T13:45:59;18.80;99.90
55173;DHT22;41061;52.822;6.860;2022-10-26T13:48:36;18.80;99.90
55173;DHT22;41061;52.822;6.860;2022-10-26T13:51:18;18.80;99.90
55173;DHT22;41061;52.822;6.860;2022-10-26T13:56:40;18.90;99.90
55173;DHT22;41061;52.822;6.860;2022-10-26T13:59:09;18.90;99.90
55173;DHT22;41061;52.822;6.860;2022-10-26T14:01:39;18.90;99.90
55173;DHT22;41061;52.822;6.860;2022-10-26T14:04:24;18.80;99.90
55173;DHT22;41061;52.822;6.860;2022-10-26T14:06:50;18.80;99.90
55173;DHT22;41061;52.822;6.860;2022-10-26T14:09:18;18.70;99.90
55173;DHT22;41061;52.822;6.860;2022-10-26T14:14:23;18.60;99.90
55173;DHT22;41061;52.822;6.860;2022-10-26T14:16:51;18.60;99.90
55173;DHT22;41061;52.822;6.860;2022-10-26T14:19:28;18.70;99.90
55173;DHT22;41061;52.822;6.860;2022-10-26T14:21:55;18.70;99.90
55173;DHT22;41061;52.822;6.860;2022-10-26T14:24:33;18.70;99.90
55173;DHT22;41061;52.822;6.860;2022-10-26T14:26:59;18.60;99.90
55173;DHT22;41061;52.822;6.860;2022-10-26T14:29:29;18.50;99.90
55173;DHT22;41061;52.822;6.860;2022-10-26T14:31:56;18.50;99.90
55173;DHT22;41061;52.822;6.860;2022-10-26T14:34:22;18.40;99.90
55173;DHT22;41061;52.822;6.860;2022-10-26T14:37:00;18.40;99.90
55173;DHT22;41061;52.822;6.860;2022-10-26T14:39:42;18.30;99.90
55173;DHT22;41061;52.822;6.860;2022-10-26T14:42:37;18.20;99.90
55173;DHT22;41061;52.822;6.860;2022-10-26T14:45:04;18.20;99.90
55173;DHT22;41061;52.822;6.860;2022-10-26T14:47:31;18.10;99.90
55173;DHT22;41061;52.822;6.860;2022-10-26T14:49:58;18.10;99.90
55173;DHT22;41061;52.822;6.860;2022-10-26T14:52:30;18.00;99.90
55173;DHT22;41061;52.822;6.860;2022-10-26T14:54:58;17.90;99.90
55173;DHT22;41061;52.822;6.860;2022-10-26T15:00:22;17.90;99.90
55173;DHT22;41061;52.822;6.860;2022-10-26T15:02:56;17.80;99.90
55173;DHT22;41061;52.822;6.860;2022-10-26T15:05:27;17.70;99.90
55173;DHT22;41061;52.822;6.860;2022-10-26T15:07:54;17.60;99.90
55173;DHT22;41061;52.822;6.860;2022-10-26T15:15:43;17.50;99.90
55173;DHT22;41061;52.822;6.860;2022-10-26T15:18:36;17.50;99.90
55173;DHT22;41061;52.822;6.860;2022-10-26T15:21:02;17.40;99.90
55173;DHT22;41061;52.822;6.860;2022-10-26T15:23:31;17.40;99.90
55173;DHT22;41061;52.822;6.860;2022-10-26T15:26:01;17.40;99.90
55173;DHT22;41061;52.822;6.860;2022-10-26T15:28:37;17.30;99.90
55173;DHT22;41061;52.822;6.860;2022-10-26T15:31:05;17.30;99.90
55173;DHT22;41061;52.822;6.860;2022-10-26T15:33:32;17.20;99.90
55173;DHT22;41061;52.822;6.860;2022-10-26T15:38:35;17.20;99.90
55173;DHT22;41061;52.822;6.860;2022-10-26T15:41:13;17.10;99.90
55173;DHT22;41061;52.822;6.860;2022-10-26T15:43:40;17.10;99.90
55173;DHT22;41061;52.822;6.860;2022-10-26T15:46:06;17.10;99.90
55173;DHT22;41061;52.822;6.860;2022-10-26T15:48:32;17.00;99.90
55173;DHT22;41061;52.822;6.860;2022-10-26T15:50:59;17.00;99.90
55173;DHT22;41061;52.822;6.860;2022-10-26T15:53:25;17.00;99.90
55173;DHT22;41061;52.822;6.860;2022-10-26T15:55:56;16.90;99.90
55173;DHT22;41061;52.822;6.860;2022-10-26T15:58:23;16.90;99.90
55173;DHT22;41061;52.822;6.860;2022-10-26T16:00:49;16.70;99.90
55173;DHT22;41061;52.822;6.860;2022-10-26T16:03:21;16.70;99.90
55173;DHT22;41061;52.822;6.860;2022-10-26T16:05:52;16.70;99.90
55173;DHT22;41061;52.822;6.860;2022-10-26T16:08:18;16.60;99.90
55173;DHT22;41061;52.822;6.860;2022-10-26T16:10:44;16.60;99.90
55173;DHT22;41061;52.822;6.860;2022-10-26T16:13:12;16.60;99.90
55173;DHT22;41061;52.822;6.860;2022-10-26T16:15:37;16.60;99.90
55173;DHT22;41061;52.822;6.860;2022-10-26T16:18:03;16.50;99.90
55173;DHT22;41061;52.822;6.860;2022-10-26T16:20:29;16.50;99.90
55173;DHT22;41061;52.822;6.860;2022-10-26T16:22:55;16.50;99.90
55173;DHT22;41061;52.822;6.860;2022-10-26T16:25:24;16.50;99.90
55173;DHT22;41061;52.822;6.860;2022-10-26T16:27:52;16.40;99.90
55173;DHT22;41061;52.822;6.860;2022-10-26T16:30:18;16.30;99.90
55173;DHT22;41061;52.822;6.860;2022-10-26T16:32:44;16.30;99.90
55173;DHT22;41061;52.822;6.860;2022-10-26T16:35:10;16.20;99.90
55173;DHT22;41061;52.822;6.860;2022-10-26T16:37:40;16.20;99.90
55173;DHT22;41061;52.822;6.860;2022-10-26T16:40:06;16.10;99.90
55173;DHT22;41061;52.822;6.860;2022-10-26T16:42:32;16.10;99.90
55173;DHT22;41061;52.822;6.860;2022-10-26T16:44:58;16.10;99.90
55173;DHT22;41061;52.822;6.860;2022-10-26T16:47:25;16.00;99.90
55173;DHT22;41061;52.822;6.860;2022-10-26T16:49:50;16.00;99.90
55173;DHT22;41061;52.822;6.860;2022-10-26T16:52:16;15.90;99.90
55173;DHT22;41061;52.822;6.860;2022-10-26T16:54:42;15.90;99.90
55173;DHT22;41061;52.822;6.860;2022-10-26T16:57:08;15.80;99.90
55173;DHT22;41061;52.822;6.860;2022-10-26T16:59:34;15.80;99.90
55173;DHT22;41061;52.822;6.860;2022-10-26T17:01:59;15.80;99.90
55173;DHT22;41061;52.822;6.860;2022-10-26T17:04:25;15.80;99.90
55173;DHT22;41061;52.822;6.860;2022-10-26T17:06:50;15.80;99.90
55173;DHT22;41061;52.822;6.860;2022-10-26T17:09:16;15.80;99.90
55173;DHT22;41061;52.822;6.860;2022-10-26T17:11:42;15.80;99.90
55173;DHT22;41061;52.822;6.860;2022-10-26T17:14:08;15.80;99.90
55173;DHT22;41061;52.822;6.860;2022-10-26T17:16:33;15.80;99.90
55173;DHT22;41061;52.822;6.860;2022-10-26T17:18:59;15.80;99.90
55173;DHT22;41061;52.822;6.860;2022-10-26T17:21:33;15.80;99.90
55173;DHT22;41061;52.822;6.860;2022-10-26T17:23:59;15.80;99.90
55173;DHT22;41061;52.822;6.860;2022-10-26T17:26:25;15.80;99.90
55173;DHT22;41061;52.822;6.860;2022-10-26T17:28:55;15.80;99.90
55173;DHT22;41061;52.822;6.860;2022-10-26T17:31:22;15.80;99.90
55173;DHT22;41061;52.822;6.860;2022-10-26T17:33:48;15.80;99.90
55173;DHT22;41061;52.822;6.860;2022-10-26T17:36:17;15.70;99.90
55173;DHT22;41061;52.822;6.860;2022-10-26T17:38:49;15.70;99.90
55173;DHT22;41061;52.822;6.860;2022-10-26T17:41:16;15.70;99.90
55173;DHT22;41061;52.822;6.860;2022-10-26T17:43:44;15.60;99.90
55173;DHT22;41061;52.822;6.860;2022-10-26T17:48:39;15.60;99.90
55173;DHT22;41061;52.822;6.860;2022-10-26T17:51:08;15.50;99.90
55173;DHT22;41061;52.822;6.860;2022-10-26T17:53:34;15.50;99.90
55173;DHT22;41061;52.822;6.860;2022-10-26T17:56:00;15.40;99.90